createdAt,value
2018-04-30T00:00:51.053Z,0
2018-04-30T00:01:51.056Z,0
2018-04-30T00:02:51.117Z,0
2018-04-30T00:03:50.990Z,0
2018-04-30T00:04:51.057Z,0
2018-04-30T00:05:50.986Z,0
2018-04-30T00:06:51.056Z,0
2018-04-30T00:07:50.985Z,0
2018-04-30T00:08:51.064Z,0
2018-04-30T00:09:51.051Z,0
2018-04-30T00:10:51.052Z,0
2018-04-30T00:11:50.982Z,0
2018-04-30T00:12:51.051Z,0
2018-04-30T00:13:50.979Z,0
2018-04-30T00:14:51.052Z,0
2018-04-30T00:15:50.989Z,0
2018-04-30T00:16:51.004Z,0
2018-04-30T00:17:50.965Z,0
2018-04-30T00:18:50.984Z,0
2018-04-30T00:19:51.029Z,0
2018-04-30T00:20:50.979Z,0
2018-04-30T00:21:51.031Z,0
2018-04-30T00:22:51.071Z,0
2018-04-30T00:23:50.985Z,0
2018-04-30T00:24:51.065Z,0
2018-04-30T00:25:51.092Z,0
2018-04-30T00:26:51.081Z,0
2018-04-30T00:27:51.049Z,0
2018-04-30T00:28:50.994Z,0
2018-04-30T00:29:51.098Z,0
2018-04-30T00:30:51.066Z,0
2018-04-30T00:31:51.061Z,0
2018-04-30T00:32:51.060Z,0
2018-04-30T00:33:50.980Z,0
2018-04-30T00:34:51.011Z,0
2018-04-30T00:35:51.064Z,0
2018-04-30T00:36:51.071Z,0
2018-04-30T00:37:51.076Z,0
2018-04-30T00:38:51.069Z,0
2018-04-30T00:39:50.995Z,0
2018-04-30T00:40:51.108Z,0
2018-04-30T00:41:51.019Z,0
2018-04-30T00:42:51.068Z,0
2018-04-30T00:43:51.032Z,0
2018-04-30T00:44:51.070Z,0
2018-04-30T00:45:51.000Z,0
2018-04-30T00:46:51.073Z,0
2018-04-30T00:47:51.074Z,0
2018-04-30T00:48:51.005Z,0
2018-04-30T00:49:51.160Z,0
2018-04-30T00:50:51.140Z,0
2018-04-30T00:51:51.104Z,0
2018-04-30T00:52:51.055Z,0
2018-04-30T00:53:51.082Z,0
2018-04-30T00:54:51.020Z,0
2018-04-30T00:55:51.119Z,0
2018-04-30T00:56:51.084Z,0
2018-04-30T00:57:51.109Z,0
2018-04-30T00:58:51.022Z,0
2018-04-30T00:59:51.007Z,0
2018-04-30T01:00:51.114Z,0
2018-04-30T01:01:51.089Z,0
2018-04-30T01:02:51.057Z,0
2018-04-30T01:03:51.090Z,0
2018-04-30T01:04:51.028Z,0
2018-04-30T01:05:50.995Z,0
2018-04-30T01:06:51.122Z,0
2018-04-30T01:07:50.992Z,0
2018-04-30T01:08:51.118Z,0
2018-04-30T01:09:51.112Z,0
2018-04-30T01:10:50.968Z,0
2018-04-30T01:11:51.081Z,0
2018-04-30T01:12:51.085Z,0
2018-04-30T01:13:51.018Z,0
2018-04-30T01:14:51.089Z,0
2018-04-30T01:15:51.056Z,0
2018-04-30T01:16:51.020Z,0
2018-04-30T01:17:51.005Z,0
2018-04-30T01:18:51.004Z,0
2018-04-30T01:19:51.008Z,0
2018-04-30T01:20:51.074Z,0
2018-04-30T01:21:51.059Z,0
2018-04-30T01:22:51.038Z,0
2018-04-30T01:23:51.019Z,0
2018-04-30T01:24:51.127Z,0
2018-04-30T01:25:51.063Z,0
2018-04-30T01:26:51.081Z,0
2018-04-30T01:27:51.067Z,0
2018-04-30T01:28:51.137Z,0
2018-04-30T01:29:51.125Z,0
2018-04-30T01:30:51.110Z,0
2018-04-30T01:31:51.038Z,0
2018-04-30T01:32:51.113Z,0
2018-04-30T01:33:51.041Z,0
2018-04-30T01:34:51.044Z,0
2018-04-30T01:35:51.114Z,0
2018-04-30T01:36:51.113Z,0
2018-04-30T01:37:51.108Z,0
2018-04-30T01:38:51.044Z,0
2018-04-30T01:39:51.115Z,0
2018-04-30T01:40:51.136Z,0
2018-04-30T01:41:51.067Z,0
2018-04-30T01:42:51.158Z,0
2018-04-30T01:43:51.092Z,0
2018-04-30T01:44:51.016Z,0
2018-04-30T01:45:51.121Z,0
2018-04-30T01:46:51.140Z,0
2018-04-30T01:47:51.092Z,0
2018-04-30T01:48:51.163Z,0
2018-04-30T01:49:51.075Z,0
2018-04-30T01:50:51.114Z,0
2018-04-30T01:51:51.040Z,0
2018-04-30T01:52:51.115Z,0
2018-04-30T01:53:51.123Z,0
2018-04-30T01:54:51.041Z,0
2018-04-30T01:55:51.048Z,0
2018-04-30T01:56:51.119Z,0
2018-04-30T01:57:50.994Z,0
2018-04-30T01:58:51.114Z,0
2018-04-30T01:59:51.120Z,0
2018-04-30T02:00:51.089Z,0
2018-04-30T02:01:51.033Z,0
2018-04-30T02:02:51.053Z,0
2018-04-30T02:03:51.116Z,0
2018-04-30T02:04:51.123Z,0
2018-04-30T02:05:51.074Z,0
2018-04-30T02:06:51.051Z,0
2018-04-30T02:07:51.037Z,0
2018-04-30T02:08:51.077Z,0
2018-04-30T02:09:51.126Z,0
2018-04-30T02:10:51.100Z,0
2018-04-30T02:11:51.160Z,0
2018-04-30T02:12:51.131Z,0
2018-04-30T02:13:51.063Z,0
2018-04-30T02:14:51.133Z,0
2018-04-30T02:15:51.147Z,0
2018-04-30T02:16:51.092Z,0
2018-04-30T02:17:51.163Z,0
2018-04-30T02:18:51.074Z,0
2018-04-30T02:19:51.038Z,0
2018-04-30T02:20:51.113Z,0
2018-04-30T02:21:51.116Z,0
2018-04-30T02:22:51.170Z,0
2018-04-30T02:23:51.136Z,0
2018-04-30T02:24:51.067Z,0
2018-04-30T02:25:51.114Z,0
2018-04-30T02:26:51.142Z,0
2018-04-30T02:27:51.168Z,0
2018-04-30T02:28:51.114Z,0
2018-04-30T02:29:51.088Z,0
2018-04-30T02:30:51.169Z,0
2018-04-30T02:31:51.178Z,0
2018-04-30T02:32:51.145Z,0
2018-04-30T02:33:51.059Z,0
2018-04-30T02:34:51.090Z,0
2018-04-30T02:35:51.071Z,0
2018-04-30T02:36:51.114Z,0
2018-04-30T02:37:51.066Z,0
2018-04-30T02:38:51.109Z,0
2018-04-30T02:39:51.106Z,0
2018-04-30T02:40:51.130Z,0
2018-04-30T02:41:51.093Z,0
2018-04-30T02:42:51.116Z,0
2018-04-30T02:43:51.177Z,0
2018-04-30T02:44:51.155Z,0
2018-04-30T02:45:51.182Z,0
2018-04-30T02:46:51.141Z,0
2018-04-30T02:47:51.190Z,0
2018-04-30T02:48:51.187Z,0
2018-04-30T02:49:51.187Z,0
2018-04-30T02:50:51.089Z,0
2018-04-30T02:51:51.090Z,0
2018-04-30T02:52:51.166Z,0
2018-04-30T02:53:51.166Z,0
2018-04-30T02:54:51.174Z,0
2018-04-30T02:55:51.166Z,0
2018-04-30T02:56:51.094Z,0
2018-04-30T02:57:51.170Z,0
2018-04-30T02:58:51.179Z,0
2018-04-30T02:59:51.167Z,0
2018-04-30T03:00:51.191Z,0
2018-04-30T03:01:51.128Z,0
2018-04-30T03:02:51.224Z,0
2018-04-30T03:03:51.198Z,0
2018-04-30T03:04:51.145Z,0
2018-04-30T03:05:51.194Z,0
2018-04-30T03:06:51.168Z,0
2018-04-30T03:07:51.200Z,0
2018-04-30T03:08:51.233Z,0
2018-04-30T03:09:51.193Z,0
2018-04-30T03:10:51.175Z,0
2018-04-30T03:11:51.104Z,0
2018-04-30T03:12:51.105Z,0
2018-04-30T03:13:51.180Z,0
2018-04-30T03:14:51.108Z,0
2018-04-30T03:15:51.120Z,4
2018-04-30T03:16:51.179Z,4
2018-04-30T03:17:51.110Z,4
2018-04-30T03:18:51.182Z,0
2018-04-30T03:19:51.108Z,4
2018-04-30T03:20:51.183Z,4
2018-04-30T03:21:51.184Z,8
2018-04-30T03:22:51.127Z,4
2018-04-30T03:23:51.113Z,8
2018-04-30T03:24:51.183Z,8
2018-04-30T03:25:51.186Z,12
2018-04-30T03:26:51.185Z,12
2018-04-30T03:27:51.185Z,16
2018-04-30T03:28:51.116Z,16
2018-04-30T03:29:51.195Z,20
2018-04-30T03:30:51.168Z,24
2018-04-30T03:31:51.144Z,32
2018-04-30T03:32:51.211Z,36
2018-04-30T03:33:51.161Z,40
2018-04-30T03:34:51.191Z,48
2018-04-30T03:35:51.167Z,56
2018-04-30T03:36:51.196Z,64
2018-04-30T03:37:51.252Z,76
2018-04-30T03:38:51.211Z,88
2018-04-30T03:39:51.158Z,104
2018-04-30T03:40:51.177Z,112
2018-04-30T03:41:51.090Z,128
2018-04-30T03:42:51.127Z,148
2018-04-30T03:43:51.174Z,168
2018-04-30T03:44:51.132Z,188
2018-04-30T03:45:51.150Z,212
2018-04-30T03:46:51.087Z,240
2018-04-30T03:47:51.091Z,272
2018-04-30T03:48:51.183Z,304
2018-04-30T03:49:51.179Z,344
2018-04-30T03:50:51.108Z,384
2018-04-30T03:51:51.190Z,440
2018-04-30T03:52:51.103Z,504
2018-04-30T03:53:51.077Z,568
2018-04-30T03:54:51.188Z,636
2018-04-30T03:55:51.191Z,696
2018-04-30T03:56:51.224Z,776
2018-04-30T03:57:51.182Z,852
2018-04-30T03:58:51.147Z,916
2018-04-30T03:59:51.140Z,972
2018-04-30T04:00:51.214Z,1008
2018-04-30T04:01:51.220Z,1044
2018-04-30T04:02:51.133Z,1088
2018-04-30T04:03:51.213Z,1148
2018-04-30T04:04:51.210Z,1216
2018-04-30T04:05:51.138Z,1300
2018-04-30T04:06:51.140Z,1380
2018-04-30T04:07:51.141Z,1452
2018-04-30T04:08:51.211Z,1520
2018-04-30T04:09:51.142Z,1588
2018-04-30T04:10:51.142Z,1668
2018-04-30T04:11:51.178Z,1760
2018-04-30T04:12:51.129Z,1872
2018-04-30T04:13:51.209Z,2008
2018-04-30T04:14:51.210Z,2148
2018-04-30T04:15:51.234Z,2300
2018-04-30T04:16:51.176Z,2468
2018-04-30T04:17:51.194Z,2656
2018-04-30T04:18:51.136Z,2856
2018-04-30T04:19:51.181Z,3040
2018-04-30T04:20:51.243Z,3176
2018-04-30T04:21:51.212Z,3300
2018-04-30T04:22:51.188Z,3436
2018-04-30T04:23:51.154Z,3580
2018-04-30T04:24:51.271Z,3728
2018-04-30T04:25:51.176Z,3868
2018-04-30T04:26:51.233Z,4024
2018-04-30T04:27:51.124Z,4204
2018-04-30T04:28:51.254Z,4412
2018-04-30T04:29:51.138Z,4616
2018-04-30T04:30:51.123Z,4860
2018-04-30T04:31:51.217Z,5108
2018-04-30T04:32:51.219Z,5340
2018-04-30T04:33:51.197Z,5576
2018-04-30T04:34:51.248Z,5804
2018-04-30T04:35:51.262Z,6016
2018-04-30T04:36:51.254Z,6184
2018-04-30T04:37:51.256Z,6372
2018-04-30T04:38:51.180Z,6568
2018-04-30T04:39:51.194Z,6828
2018-04-30T04:40:51.194Z,7112
2018-04-30T04:41:51.253Z,7408
2018-04-30T04:42:51.261Z,7692
2018-04-30T04:43:51.206Z,7956
2018-04-30T04:44:51.147Z,8244
2018-04-30T04:45:51.307Z,8584
2018-04-30T04:46:51.192Z,8976
2018-04-30T04:47:51.254Z,9376
2018-04-30T04:48:51.230Z,9776
2018-04-30T04:49:51.273Z,10212
2018-04-30T04:50:51.208Z,10604
2018-04-30T04:51:51.194Z,11108
2018-04-30T04:52:51.264Z,11760
2018-04-30T04:53:51.203Z,12636
2018-04-30T04:54:51.230Z,13668
2018-04-30T04:55:51.277Z,14476
2018-04-30T04:56:51.211Z,15024
2018-04-30T04:57:51.205Z,15396
2018-04-30T04:58:51.210Z,15340
2018-04-30T04:59:51.196Z,15072
2018-04-30T05:00:51.239Z,14784
2018-04-30T05:01:51.217Z,14652
2018-04-30T05:02:51.196Z,14840
2018-04-30T05:03:51.209Z,15320
2018-04-30T05:04:51.269Z,15772
2018-04-30T05:05:51.179Z,15716
2018-04-30T05:06:51.147Z,15236
2018-04-30T05:07:51.303Z,14816
2018-04-30T05:08:51.205Z,14368
2018-04-30T05:09:51.163Z,14140
2018-04-30T05:10:51.314Z,14100
2018-04-30T05:11:51.245Z,14000
2018-04-30T05:12:51.146Z,14064
2018-04-30T05:13:51.247Z,14140
2018-04-30T05:14:51.269Z,14120
2018-04-30T05:15:51.243Z,14008
2018-04-30T05:16:51.275Z,13968
2018-04-30T05:17:51.250Z,13960
2018-04-30T05:18:51.279Z,13944
2018-04-30T05:19:51.267Z,13876
2018-04-30T05:20:51.178Z,13756
2018-04-30T05:21:51.244Z,13672
2018-04-30T05:22:51.278Z,13492
2018-04-30T05:23:51.171Z,13392
2018-04-30T05:24:51.218Z,13368
2018-04-30T05:25:51.230Z,13432
2018-04-30T05:26:51.229Z,13592
2018-04-30T05:27:51.333Z,13872
2018-04-30T05:28:51.227Z,14244
2018-04-30T05:29:51.236Z,15008
2018-04-30T05:30:51.220Z,15980
2018-04-30T05:31:51.235Z,16528
2018-04-30T05:32:51.230Z,16860
2018-04-30T05:33:51.294Z,17316
2018-04-30T05:34:51.182Z,18012
2018-04-30T05:35:51.195Z,19124
2018-04-30T05:36:51.164Z,19768
2018-04-30T05:37:51.182Z,19980
2018-04-30T05:38:51.243Z,20896
2018-04-30T05:39:51.230Z,21248
2018-04-30T05:40:51.265Z,22208
2018-04-30T05:41:51.197Z,22528
2018-04-30T05:42:51.200Z,23360
2018-04-30T05:43:51.204Z,23552
2018-04-30T05:44:51.223Z,30240
2018-04-30T05:45:51.270Z,31808
2018-04-30T05:46:51.198Z,29376
2018-04-30T05:47:51.202Z,26624
2018-04-30T05:48:51.269Z,25376
2018-04-30T05:49:51.209Z,21152
2018-04-30T05:50:51.264Z,20832
2018-04-30T05:51:51.236Z,17852
2018-04-30T05:52:51.307Z,18512
2018-04-30T05:53:51.241Z,17712
2018-04-30T05:54:51.214Z,18408
2018-04-30T05:55:51.247Z,19756
2018-04-30T05:56:51.294Z,19836
2018-04-30T05:57:51.273Z,21696
2018-04-30T05:58:51.344Z,27712
2018-04-30T05:59:51.244Z,27712
2018-04-30T06:00:51.278Z,40576
2018-04-30T06:01:51.210Z,25888
2018-04-30T06:02:51.282Z,28736
2018-04-30T06:03:51.210Z,30368
2018-04-30T06:04:51.210Z,36640
2018-04-30T06:05:51.280Z,31040
2018-04-30T06:06:51.233Z,29984
2018-04-30T06:07:51.280Z,41088
2018-04-30T06:08:51.210Z,31648
2018-04-30T06:09:51.285Z,25600
2018-04-30T06:10:51.271Z,26720
2018-04-30T06:11:51.223Z,21216
2018-04-30T06:12:51.255Z,20076
2018-04-30T06:13:51.265Z,18688
2018-04-30T06:14:51.187Z,16964
2018-04-30T06:15:51.245Z,15828
2018-04-30T06:16:51.188Z,15036
2018-04-30T06:17:51.226Z,14924
2018-04-30T06:18:51.186Z,14572
2018-04-30T06:19:51.270Z,14828
2018-04-30T06:20:51.288Z,15224
2018-04-30T06:21:51.292Z,15628
2018-04-30T06:22:51.311Z,16092
2018-04-30T06:23:51.318Z,16244
2018-04-30T06:24:51.291Z,16372
2018-04-30T06:25:51.229Z,16508
2018-04-30T06:26:51.332Z,16228
2018-04-30T06:27:51.223Z,15860
2018-04-30T06:28:51.232Z,15276
2018-04-30T06:29:51.175Z,14792
2018-04-30T06:30:51.317Z,14388
2018-04-30T06:31:51.336Z,14052
2018-04-30T06:32:51.323Z,13764
2018-04-30T06:33:51.277Z,13476
2018-04-30T06:34:51.275Z,13200
2018-04-30T06:35:51.360Z,12904
2018-04-30T06:36:51.317Z,12596
2018-04-30T06:37:51.278Z,12340
2018-04-30T06:38:51.280Z,12096
2018-04-30T06:39:51.224Z,11796
2018-04-30T06:40:51.328Z,11492
2018-04-30T06:41:51.263Z,11240
2018-04-30T06:42:51.273Z,10764
2018-04-30T06:43:51.266Z,9764
2018-04-30T06:44:51.275Z,8496
2018-04-30T06:45:51.271Z,7520
2018-04-30T06:46:51.282Z,7012
2018-04-30T06:47:51.212Z,6952
2018-04-30T06:48:51.326Z,7328
2018-04-30T06:49:51.341Z,8156
2018-04-30T06:50:51.301Z,9300
2018-04-30T06:51:51.309Z,10120
2018-04-30T06:52:51.311Z,10372
2018-04-30T06:53:51.229Z,10440
2018-04-30T06:54:51.327Z,10904
2018-04-30T06:55:51.272Z,11772
2018-04-30T06:56:51.282Z,12416
2018-04-30T06:57:51.218Z,12248
2018-04-30T06:58:51.237Z,11612
2018-04-30T06:59:51.291Z,11460
2018-04-30T07:00:51.283Z,12040
2018-04-30T07:01:51.315Z,12784
2018-04-30T07:02:51.316Z,13212
2018-04-30T07:03:51.216Z,13672
2018-04-30T07:04:51.355Z,14444
2018-04-30T07:05:51.239Z,15636
2018-04-30T07:06:51.300Z,17092
2018-04-30T07:07:51.296Z,17972
2018-04-30T07:08:51.281Z,17860
2018-04-30T07:09:51.380Z,17328
2018-04-30T07:10:51.299Z,16932
2018-04-30T07:11:51.323Z,16696
2018-04-30T07:12:51.254Z,17540
2018-04-30T07:13:51.336Z,18712
2018-04-30T07:14:51.258Z,18700
2018-04-30T07:15:51.329Z,19484
2018-04-30T07:16:51.255Z,21408
2018-04-30T07:17:51.327Z,23200
2018-04-30T07:18:51.258Z,25248
2018-04-30T07:19:51.325Z,27168
2018-04-30T07:20:51.259Z,28832
2018-04-30T07:21:51.332Z,30752
2018-04-30T07:22:51.336Z,32928
2018-04-30T07:23:51.273Z,34720
2018-04-30T07:24:51.328Z,36768
2018-04-30T07:25:51.262Z,38752
2018-04-30T07:26:51.266Z,39104
2018-04-30T07:27:51.378Z,41952
2018-04-30T07:28:51.268Z,43008
2018-04-30T07:29:51.347Z,43232
2018-04-30T07:30:51.267Z,42688
2018-04-30T07:31:51.267Z,40320
2018-04-30T07:32:51.264Z,41088
2018-04-30T07:33:51.336Z,42752
2018-04-30T07:34:51.338Z,47040
2018-04-30T07:35:51.272Z,49888
2018-04-30T07:36:51.337Z,44384
2018-04-30T07:37:51.274Z,38784
2018-04-30T07:38:51.340Z,43680
2018-04-30T07:39:51.343Z,45856
2018-04-30T07:40:51.273Z,46176
2018-04-30T07:41:51.197Z,44160
2018-04-30T07:42:51.293Z,42976
2018-04-30T07:43:51.291Z,42560
2018-04-30T07:44:51.278Z,41696
2018-04-30T07:45:51.251Z,41216
2018-04-30T07:46:51.254Z,40320
2018-04-30T07:47:51.243Z,39328
2018-04-30T07:48:51.300Z,38176
2018-04-30T07:49:51.294Z,37632
2018-04-30T07:50:51.247Z,37248
2018-04-30T07:51:51.308Z,36544
2018-04-30T07:52:51.280Z,36640
2018-04-30T07:53:51.279Z,35008
2018-04-30T07:54:51.370Z,34560
2018-04-30T07:55:51.281Z,33248
2018-04-30T07:56:51.351Z,32832
2018-04-30T07:57:51.350Z,32384
2018-04-30T07:58:51.315Z,31232
2018-04-30T07:59:51.296Z,32224
2018-04-30T08:00:51.283Z,32608
2018-04-30T08:01:51.253Z,32768
2018-04-30T08:02:51.321Z,34656
2018-04-30T08:03:51.375Z,36192
2018-04-30T08:04:51.358Z,39936
2018-04-30T08:05:51.353Z,41824
2018-04-30T08:06:51.393Z,41856
2018-04-30T08:07:51.377Z,41120
2018-04-30T08:08:51.329Z,39808
2018-04-30T08:09:51.388Z,38336
2018-04-30T08:10:51.386Z,36640
2018-04-30T08:11:51.346Z,35072
2018-04-30T08:12:51.377Z,33408
2018-04-30T08:13:51.323Z,32224
2018-04-30T08:14:51.496Z,31168
2018-04-30T08:15:51.365Z,29856
2018-04-30T08:16:51.383Z,28704
2018-04-30T08:17:51.265Z,28256
2018-04-30T08:18:51.335Z,28224
2018-04-30T08:19:51.395Z,28256
2018-04-30T08:20:51.264Z,27040
2018-04-30T08:21:51.291Z,25760
2018-04-30T08:22:51.405Z,24704
2018-04-30T08:23:51.409Z,24000
2018-04-30T08:24:51.404Z,23808
2018-04-30T08:25:51.328Z,24064
2018-04-30T08:26:51.409Z,24672
2018-04-30T08:27:51.403Z,25344
2018-04-30T08:28:51.333Z,25568
2018-04-30T08:29:51.350Z,25152
2018-04-30T08:30:51.268Z,24832
2018-04-30T08:31:51.312Z,26368
2018-04-30T08:32:51.238Z,30368
2018-04-30T08:33:51.257Z,36832
2018-04-30T08:34:51.280Z,44544
2018-04-30T08:35:51.280Z,50784
2018-04-30T08:36:51.358Z,54912
2018-04-30T08:37:51.239Z,62176
2018-04-30T08:38:51.279Z,63264
2018-04-30T08:39:51.327Z,65120
2018-04-30T08:40:51.264Z,60928
2018-04-30T08:41:51.380Z,64576
2018-04-30T08:42:51.352Z,60992
2018-04-30T08:43:51.413Z,62016
2018-04-30T08:44:51.453Z,60192
2018-04-30T08:45:51.344Z,51360
2018-04-30T08:46:51.411Z,48544
2018-04-30T08:47:51.384Z,45344
2018-04-30T08:48:51.362Z,42048
2018-04-30T08:49:51.296Z,36288
2018-04-30T08:50:51.380Z,33632
2018-04-30T08:51:51.271Z,34208
2018-04-30T08:52:51.258Z,32416
2018-04-30T08:53:51.323Z,29184
2018-04-30T08:54:51.370Z,27456
2018-04-30T08:55:51.390Z,26496
2018-04-30T08:56:51.369Z,26400
2018-04-30T08:57:51.344Z,22656
2018-04-30T08:58:51.312Z,18304
2018-04-30T08:59:51.377Z,17716
2018-04-30T09:00:51.327Z,17228
2018-04-30T09:01:51.336Z,17096
2018-04-30T09:02:51.387Z,18508
2018-04-30T09:03:51.346Z,20368
2018-04-30T09:04:51.348Z,22752
2018-04-30T09:05:51.264Z,25760
2018-04-30T09:06:51.285Z,27360
2018-04-30T09:07:51.394Z,26528
2018-04-30T09:08:51.263Z,28160
2018-04-30T09:09:51.389Z,31744
2018-04-30T09:10:51.395Z,35488
2018-04-30T09:11:51.332Z,38112
2018-04-30T09:12:51.335Z,38496
2018-04-30T09:13:51.331Z,37344
2018-04-30T09:14:51.417Z,38528
2018-04-30T09:15:51.334Z,40736
2018-04-30T09:16:51.346Z,42336
2018-04-30T09:17:51.405Z,42528
2018-04-30T09:18:51.344Z,42272
2018-04-30T09:19:51.403Z,41312
2018-04-30T09:20:51.333Z,39840
2018-04-30T09:21:51.371Z,36544
2018-04-30T09:22:51.399Z,31968
2018-04-30T09:23:51.425Z,26880
2018-04-30T09:24:51.442Z,22912
2018-04-30T09:25:51.327Z,20800
2018-04-30T09:26:51.445Z,19580
2018-04-30T09:27:51.405Z,19288
2018-04-30T09:28:51.315Z,19328
2018-04-30T09:29:51.320Z,19760
2018-04-30T09:30:51.317Z,21056
2018-04-30T09:31:51.406Z,23040
2018-04-30T09:32:51.315Z,26080
2018-04-30T09:33:51.409Z,30048
2018-04-30T09:34:51.401Z,34688
2018-04-30T09:35:51.321Z,38528
2018-04-30T09:36:51.408Z,39584
2018-04-30T09:37:51.401Z,39584
2018-04-30T09:38:51.334Z,37792
2018-04-30T09:39:51.343Z,35008
2018-04-30T09:40:51.335Z,32992
2018-04-30T09:41:51.412Z,32608
2018-04-30T09:42:51.317Z,32160
2018-04-30T09:43:51.323Z,31648
2018-04-30T09:44:51.286Z,31200
2018-04-30T09:45:51.288Z,30720
2018-04-30T09:46:51.325Z,30624
2018-04-30T09:47:51.327Z,31712
2018-04-30T09:48:51.409Z,33184
2018-04-30T09:49:51.423Z,34784
2018-04-30T09:50:51.417Z,36800
2018-04-30T09:51:51.423Z,39072
2018-04-30T09:52:51.425Z,41120
2018-04-30T09:53:51.328Z,41792
2018-04-30T09:54:51.465Z,40928
2018-04-30T09:55:51.460Z,38528
2018-04-30T09:56:51.392Z,35936
2018-04-30T09:57:51.369Z,33664
2018-04-30T09:58:51.396Z,31776
2018-04-30T09:59:51.467Z,30208
2018-04-30T10:00:51.399Z,28544
2018-04-30T10:01:51.394Z,27328
2018-04-30T10:02:51.431Z,26976
2018-04-30T10:03:51.338Z,27616
2018-04-30T10:04:51.431Z,29184
2018-04-30T10:05:51.338Z,31392
2018-04-30T10:06:51.433Z,34400
2018-04-30T10:07:51.458Z,38912
2018-04-30T10:08:51.347Z,45056
2018-04-30T10:09:51.458Z,51136
2018-04-30T10:10:51.346Z,56640
2018-04-30T10:11:51.396Z,83520
2018-04-30T10:12:51.336Z,91872
2018-04-30T10:13:51.360Z,72192
2018-04-30T10:14:51.402Z,63808
2018-04-30T10:15:51.505Z,54112
2018-04-30T10:16:51.442Z,46688
2018-04-30T10:17:51.503Z,41344
2018-04-30T10:18:51.440Z,36512
2018-04-30T10:19:51.443Z,30432
2018-04-30T10:20:51.466Z,25504
2018-04-30T10:21:51.406Z,22560
2018-04-30T10:22:51.465Z,19344
2018-04-30T10:23:51.474Z,17232
2018-04-30T10:24:51.346Z,17948
2018-04-30T10:25:51.368Z,21696
2018-04-30T10:26:51.421Z,24640
2018-04-30T10:27:51.476Z,24928
2018-04-30T10:28:51.477Z,23520
2018-04-30T10:29:51.443Z,25376
2018-04-30T10:30:51.448Z,28256
2018-04-30T10:31:51.434Z,29120
2018-04-30T10:32:51.432Z,30752
2018-04-30T10:33:51.371Z,34208
2018-04-30T10:34:51.371Z,37280
2018-04-30T10:35:51.483Z,38784
2018-04-30T10:36:51.491Z,40032
2018-04-30T10:37:51.551Z,41920
2018-04-30T10:38:51.421Z,43776
2018-04-30T10:39:51.428Z,45728
2018-04-30T10:40:51.424Z,43808
2018-04-30T10:41:51.364Z,39168
2018-04-30T10:42:51.455Z,34688
2018-04-30T10:43:51.498Z,33120
2018-04-30T10:44:51.477Z,33760
2018-04-30T10:45:51.475Z,35328
2018-04-30T10:46:51.401Z,37408
2018-04-30T10:47:51.381Z,39456
2018-04-30T10:48:51.493Z,41728
2018-04-30T10:49:51.465Z,48960
2018-04-30T10:50:51.460Z,65696
2018-04-30T10:51:51.465Z,72896
2018-04-30T10:52:51.487Z,59136
2018-04-30T10:53:51.465Z,62240
2018-04-30T10:54:51.434Z,66880
2018-04-30T10:55:51.489Z,65568
2018-04-30T10:56:51.498Z,64704
2018-04-30T10:57:51.502Z,58592
2018-04-30T10:58:51.500Z,54080
2018-04-30T10:59:51.407Z,59296
2018-04-30T11:00:51.478Z,74368
2018-04-30T11:01:51.417Z,177152
2018-04-30T11:02:51.470Z,81632
2018-04-30T11:03:51.375Z,177216
2018-04-30T11:04:51.466Z,56256
2018-04-30T11:05:51.378Z,58464
2018-04-30T11:06:51.461Z,76608
2018-04-30T11:07:51.465Z,53120
2018-04-30T11:08:51.467Z,51328
2018-04-30T11:09:51.462Z,107744
2018-04-30T11:10:51.361Z,71392
2018-04-30T11:11:51.407Z,52288
2018-04-30T11:12:51.475Z,48352
2018-04-30T11:13:51.412Z,48576
2018-04-30T11:14:51.412Z,128096
2018-04-30T11:15:51.484Z,63776
2018-04-30T11:16:51.415Z,57216
2018-04-30T11:17:51.482Z,49728
2018-04-30T11:18:51.477Z,42560
2018-04-30T11:19:51.483Z,38560
2018-04-30T11:20:51.468Z,45088
2018-04-30T11:21:51.414Z,182592
2018-04-30T11:22:51.417Z,121344
2018-04-30T11:23:51.480Z,69632
2018-04-30T11:24:51.482Z,61120
2018-04-30T11:25:51.414Z,53120
2018-04-30T11:26:51.482Z,44608
2018-04-30T11:27:51.454Z,37728
2018-04-30T11:28:51.422Z,32672
2018-04-30T11:29:51.421Z,28544
2018-04-30T11:30:51.421Z,26880
2018-04-30T11:31:51.481Z,25216
2018-04-30T11:32:51.487Z,22880
2018-04-30T11:33:51.516Z,20512
2018-04-30T11:34:51.398Z,17752
2018-04-30T11:35:51.459Z,17564
2018-04-30T11:36:51.538Z,20448
2018-04-30T11:37:51.469Z,24032
2018-04-30T11:38:51.527Z,25984
2018-04-30T11:39:51.494Z,28256
2018-04-30T11:40:51.460Z,32864
2018-04-30T11:41:51.425Z,38880
2018-04-30T11:42:51.422Z,45600
2018-04-30T11:43:51.499Z,52800
2018-04-30T11:44:51.431Z,60320
2018-04-30T11:45:51.498Z,71936
2018-04-30T11:46:51.431Z,62656
2018-04-30T11:47:51.500Z,49088
2018-04-30T11:48:51.498Z,41504
2018-04-30T11:49:51.429Z,39488
2018-04-30T11:50:51.500Z,36960
2018-04-30T11:51:51.433Z,31008
2018-04-30T11:52:51.474Z,28384
2018-04-30T11:53:51.482Z,28160
2018-04-30T11:54:51.385Z,30688
2018-04-30T11:55:51.453Z,33888
2018-04-30T11:56:51.478Z,37600
2018-04-30T11:57:51.430Z,43232
2018-04-30T11:58:51.366Z,48512
2018-04-30T11:59:51.401Z,52640
2018-04-30T12:00:51.518Z,55360
2018-04-30T12:01:51.442Z,57056
2018-04-30T12:02:51.465Z,57696
2018-04-30T12:03:51.448Z,59424
2018-04-30T12:04:51.515Z,61152
2018-04-30T12:05:51.534Z,59616
2018-04-30T12:06:51.540Z,62144
2018-04-30T12:07:51.413Z,87968
2018-04-30T12:08:51.554Z,190528
2018-04-30T12:09:51.538Z,115072
2018-04-30T12:10:51.434Z,138080
2018-04-30T12:11:51.497Z,101344
2018-04-30T12:12:51.468Z,63104
2018-04-30T12:13:51.399Z,54208
2018-04-30T12:14:51.381Z,50560
2018-04-30T12:15:51.400Z,46592
2018-04-30T12:16:51.500Z,45184
2018-04-30T12:17:51.452Z,49056
2018-04-30T12:18:51.420Z,59968
2018-04-30T12:19:51.519Z,62240
2018-04-30T12:20:51.427Z,72224
2018-04-30T12:21:51.500Z,85632
2018-04-30T12:22:51.480Z,73056
2018-04-30T12:23:51.538Z,65728
2018-04-30T12:24:51.530Z,61024
2018-04-30T12:25:51.538Z,57024
2018-04-30T12:26:51.553Z,56448
2018-04-30T12:27:51.500Z,60640
2018-04-30T12:28:51.424Z,67136
2018-04-30T12:29:51.627Z,82400
2018-04-30T12:30:51.488Z,162880
2018-04-30T12:31:51.555Z,172864
2018-04-30T12:32:51.493Z,80544
2018-04-30T12:33:51.504Z,199424
2018-04-30T12:34:51.550Z,82080
2018-04-30T12:35:51.493Z,72480
2018-04-30T12:36:51.471Z,71328
2018-04-30T12:37:51.457Z,116992
2018-04-30T12:39:51.504Z,177888
2018-04-30T12:40:51.553Z,155232
2018-04-30T12:41:51.554Z,125024
2018-04-30T12:42:51.567Z,176128
2018-04-30T12:43:51.558Z,160224
2018-04-30T12:44:51.561Z,128384
2018-04-30T12:45:51.549Z,161088
2018-04-30T12:46:51.554Z,102880
2018-04-30T12:47:51.569Z,102496
2018-04-30T12:48:51.461Z,165376
2018-04-30T12:49:51.683Z,170240
2018-04-30T12:50:51.585Z,74816
2018-04-30T12:51:51.470Z,122528
2018-04-30T12:52:51.495Z,143328
2018-04-30T12:53:51.460Z,182656
2018-04-30T12:54:51.530Z,190880
2018-04-30T12:55:51.546Z,193024
2018-04-30T12:56:51.498Z,91936
2018-04-30T12:57:51.469Z,85152
2018-04-30T12:58:51.415Z,84608
2018-04-30T12:59:51.539Z,88768
2018-04-30T13:00:51.539Z,73920
2018-04-30T13:01:51.455Z,68704
2018-04-30T13:02:51.537Z,66496
2018-04-30T13:03:51.452Z,60224
2018-04-30T13:04:51.533Z,66816
2018-04-30T13:05:51.486Z,203616
2018-04-30T13:06:51.541Z,76032
2018-04-30T13:07:51.457Z,79232
2018-04-30T13:08:51.459Z,101248
2018-04-30T13:09:51.415Z,160896
2018-04-30T13:10:51.539Z,174400
2018-04-30T13:11:51.515Z,192608
2018-04-30T13:12:51.460Z,193760
2018-04-30T13:13:51.582Z,102496
2018-04-30T13:14:51.533Z,72736
2018-04-30T13:15:51.510Z,60544
2018-04-30T13:16:51.523Z,58208
2018-04-30T13:17:51.513Z,53728
2018-04-30T13:18:51.497Z,58112
2018-04-30T13:19:51.537Z,49696
2018-04-30T13:20:51.469Z,43840
2018-04-30T13:21:51.567Z,41248
2018-04-30T13:22:51.559Z,38656
2018-04-30T13:23:51.488Z,38624